Mr. Cass — WDB5593 — position and weather

sailwx.info

Track history (hours):
 
Tides and Currents Weather Stations Pressure Air Temp Water Temp Dewpoint Dewpoint Depression Visibility Wind Speed Wind Dir Waves Ship Positions

Mr. Cass

Owner: Cass Marine Towing LLC, Marrero, LA. More information available from US FCC via Universal Licensing System and Coast Guard Vessel Documentation Center.

Last reported at 2016-Apr-25 04:20 UTC. Time now 2016-Apr-30 16:55 UTC.
Position N 29°54' W 090°05'.

Length 17 m; draft 3.5 m.

Type: Towing. MMSI: 366911310.

Date/timePositionNaut miles runAvg speedWind from/ knotsBaromVisibWave heightAir tempDewpointWater temp
2016-Apr-25 04:20N 29°54' W 090°05'0 0.0
2016-Apr-25 03:33N 29°54' W 090°05'0 0.0
2016-Apr-25 02:33N 29°54' W 090°05'0 0.0
2016-Apr-25 01:33N 29°54' W 090°05'0 0.0
2016-Apr-25 00:33N 29°54' W 090°05'0 0.0
2016-Apr-24 23:33N 29°54' W 090°05'0 0.0
2016-Apr-24 22:33N 29°54' W 090°05'0 0.0
2016-Apr-24 21:33N 29°54' W 090°05'0 0.0
2016-Apr-24 20:33N 29°54' W 090°05'0 0.0
2016-Apr-24 19:33N 29°54' W 090°05'0 0.0
2016-Apr-24 18:33N 29°54' W 090°05'0 0.0
2016-Apr-24 17:33N 29°54' W 090°05'0 0.0
2016-Apr-24 16:33N 29°54' W 090°05'0 0.0
2016-Apr-24 15:33N 29°54' W 090°05'0 0.0
2016-Apr-24 14:33N 29°54' W 090°05'0 0.0
2016-Apr-24 13:32N 29°54' W 090°05'0 0.1
2016-Apr-24 12:33N 29°53' W 090°05'4 3.6
2016-Apr-24 11:33N 29°50' W 090°02'6 5.9
2016-Apr-24 10:33N 29°55' W 089°58'1 0.9
2016-Apr-24 09:33N 29°56' W 089°59'4 4.2
2016-Apr-24 08:33N 29°55' W 090°04'4 4.0
2016-Apr-24 07:33N 29°55' W 090°08'3 2.6
2016-Apr-24 06:21N 29°56' W 090°12'3 3.5
2016-Apr-24 05:33N 29°57' W 090°09'3 3.2
2016-Apr-24 04:33N 29°55' W 090°07'3 3.3
2016-Apr-24 03:33N 29°56' W 090°04'2 2.3
2016-Apr-24 02:33N 29°58' W 090°02'1 0.6
2016-Apr-24 01:33N 29°58' W 090°01'1 1.1
2016-Apr-24 00:33N 29°60' W 090°01'0 0.5
2016-Apr-23 23:33N 29°60' W 090°01'0 0.0
2016-Apr-23 22:33N 29°60' W 090°01'0 0.0
2016-Apr-23 21:33N 29°60' W 090°01'0 0.0
2016-Apr-23 20:33N 29°60' W 090°01'0 0.0
2016-Apr-23 19:33N 29°60' W 090°01'0 0.0
2016-Apr-23 18:33N 29°60' W 090°01'0 0.0
2016-Apr-23 17:33N 29°60' W 090°01'0 0.0
2016-Apr-23 16:33N 29°60' W 090°01'0 0.0
2016-Apr-23 15:33N 29°60' W 090°01'0 0.0
2016-Apr-23 14:33N 29°60' W 090°01'0 0.0
2016-Apr-23 13:33N 29°60' W 090°01'0 0.0
2016-Apr-23 12:33N 29°60' W 090°01'0 0.0
2016-Apr-23 11:33N 29°60' W 090°01'0 0.0
2016-Apr-23 10:33N 29°60' W 090°01'2 1.9
2016-Apr-23 09:33N 29°60' W 089°59'  
2016-Apr-20 11:09N 30°16' W 088°12'  
2016-Apr-16 00:33N 29°55' W 089°58'1 1.2
2016-Apr-15 23:33N 29°56' W 089°59'6 6.2
2016-Apr-15 22:33N 29°55' W 090°06'  
Track history (hours):
 
Tides and Currents Weather Stations Pressure Air Temp Water Temp Dewpoint Dewpoint Depression Visibility Wind Speed Wind Dir Waves Ship Positions

Mr. Cass

Owner: Cass Marine Towing LLC, Marrero, LA. More information available from US FCC via Universal Licensing System and Coast Guard Vessel Documentation Center.

Last reported at 2016-Apr-25 04:20 UTC. Time now 2016-Apr-30 16:55 UTC.
Position N 29°54' W 090°05'.

Length 17 m; draft 3.5 m.

Type: Towing. MMSI: 366911310.

Date/timePositionNaut miles runAvg speedWind from/ knotsBaromVisibWave heightAir tempDewpointWater temp
2016-Apr-25 04:20N 29°54' W 090°05'0 0.0
2016-Apr-25 03:33N 29°54' W 090°05'0 0.0
2016-Apr-25 02:33N 29°54' W 090°05'0 0.0
2016-Apr-25 01:33N 29°54' W 090°05'0 0.0
2016-Apr-25 00:33N 29°54' W 090°05'0 0.0
2016-Apr-24 23:33N 29°54' W 090°05'0 0.0
2016-Apr-24 22:33N 29°54' W 090°05'0 0.0
2016-Apr-24 21:33N 29°54' W 090°05'0 0.0
2016-Apr-24 20:33N 29°54' W 090°05'0 0.0
2016-Apr-24 19:33N 29°54' W 090°05'0 0.0
2016-Apr-24 18:33N 29°54' W 090°05'0 0.0
2016-Apr-24 17:33N 29°54' W 090°05'0 0.0
2016-Apr-24 16:33N 29°54' W 090°05'0 0.0
2016-Apr-24 15:33N 29°54' W 090°05'0 0.0
2016-Apr-24 14:33N 29°54' W 090°05'0 0.0
2016-Apr-24 13:32N 29°54' W 090°05'0 0.1
2016-Apr-24 12:33N 29°53' W 090°05'4 3.6
2016-Apr-24 11:33N 29°50' W 090°02'6 5.9
2016-Apr-24 10:33N 29°55' W 089°58'1 0.9
2016-Apr-24 09:33N 29°56' W 089°59'4 4.2
2016-Apr-24 08:33N 29°55' W 090°04'4 4.0
2016-Apr-24 07:33N 29°55' W 090°08'3 2.6
2016-Apr-24 06:21N 29°56' W 090°12'3 3.5
2016-Apr-24 05:33N 29°57' W 090°09'3 3.2
2016-Apr-24 04:33N 29°55' W 090°07'3 3.3
2016-Apr-24 03:33N 29°56' W 090°04'2 2.3
2016-Apr-24 02:33N 29°58' W 090°02'1 0.6
2016-Apr-24 01:33N 29°58' W 090°01'1 1.1
2016-Apr-24 00:33N 29°60' W 090°01'0 0.5
2016-Apr-23 23:33N 29°60' W 090°01'0 0.0
2016-Apr-23 22:33N 29°60' W 090°01'0 0.0
2016-Apr-23 21:33N 29°60' W 090°01'0 0.0
2016-Apr-23 20:33N 29°60' W 090°01'0 0.0
2016-Apr-23 19:33N 29°60' W 090°01'0 0.0
2016-Apr-23 18:33N 29°60' W 090°01'0 0.0
2016-Apr-23 17:33N 29°60' W 090°01'0 0.0
2016-Apr-23 16:33N 29°60' W 090°01'0 0.0
2016-Apr-23 15:33N 29°60' W 090°01'0 0.0
2016-Apr-23 14:33N 29°60' W 090°01'0 0.0
2016-Apr-23 13:33N 29°60' W 090°01'0 0.0
2016-Apr-23 12:33N 29°60' W 090°01'0 0.0
2016-Apr-23 11:33N 29°60' W 090°01'0 0.0
2016-Apr-23 10:33N 29°60' W 090°01'2 1.9
2016-Apr-23 09:33N 29°60' W 089°59'  
2016-Apr-20 11:09N 30°16' W 088°12'  
2016-Apr-16 00:33N 29°55' W 089°58'1 1.2
2016-Apr-15 23:33N 29°56' W 089°59'6 6.2
2016-Apr-15 22:33N 29°55' W 090°06'  

Dump ship's entire track history